Terminal Aerodrome Forecast
Issued by NWS

Home | Current Version | Previous Version | Text Only | Print | Product List | Glossary On
Versions: 1 2 3 4 5 6 7 8 9 10 11 12 13 14 15 16 17 18
000
FTUS44 KBMX 231122
TAFEET
TAF
KEET 231122Z 2312/2412 28007KT P6SM -RA BKN008 OVC015
     FM231600 29010G18KT P6SM VCSH OVC015
     FM232000 30012G20KT P6SM BKN025
     FM240500 31010KT P6SM OVC015=

USA.gov is the U.S. government's official web portal to all federal, state and local government web resources and services.